Pearland, TX

2:44 PM CDT on September 03, 2015 (GMT -0500)
Clover | | Change Station
CLOSE
Current Station
Airport
Location: Houston Clover,
Elevation: 43 ft
Nearby Weather Stations

Elev 43 ft 29.52 °N, 95.24 °W | Updated 51 minutes ago

Overcast
Overcast
89 °F
Feels Like 97 °F
N
10
Wind Variable Wind from East

Today
High -- | Low -- °F
--% Chance of Precip.
Yesterday
High -- | Low -- °F
Precip. -- in
6:59 AM 7:40 PM
Waning Gibbous, 67% visible
Pressure 29.93 in
Visibility 10.0 miles
Clouds Scattered Clouds 3200 ft
Mostly Cloudy 4200 ft
Overcast 7000 ft
Heat Index 97 °F
Dew Point 73 °F
Humidity 59%
Rainfall 0.01 in
Snow Depth Not available.
UV 3 out of 12
Pollen 5.30 out of 12
Air Quality Not available.
Flu Activity Not available.
METAR KLVJ 031853Z AUTO 08009KT 10SM SCT032 BKN042 OVC070 32/23 A2993 RMK AO2 RAE1758 SLP135 P0000 T03170228
Pressure 29.93 in
Visibility 10.0 miles
Clouds Scattered Clouds 3200 ft
Mostly Cloudy 4200 ft
Overcast 7000 ft
Heat Index 97 °F
Dew Point 73 °F
Humidity 59%
Rainfall 0.01 in
Snow Depth Not available.
UV 3 out of 12
Pollen 5.30 out of 12
Air Quality Not available.
Flu Activity Not available.
METAR KLVJ 031853Z AUTO 08009KT 10SM SCT032 BKN042 OVC070 32/23 A2993 RMK AO2 RAE1758 SLP135 P0000 T03170228

10-Day Weather Forecast

×

Almanac

Astronomy

Sep. 03, 2015 Rise Set
Actual Time
Civil Twilight
Nautical Twilight
Astronomical Twilight
Moon
Length of Visible Light
Length of Day
Tomorrow will be .
, % of the Moon is Illuminated

Today's Extremes

State Highs State Lows

Community

WunderPhotos

Upload Photos

1,852,017 photos uploaded!

WunderBlogs® & News

Nearby

Air Quality

  Air Quality AQ Index Pollutant
Not available.

Snow Depth

Station Depth Elevation

Earthquake Activity

City Distance Mag. Time & Date
Minimum magnitude displayed is 2.5.

Coastal Water Temperatures

Place Temperature

Stations

Nearby Weather Stations

Station Location Temp. Windchill Dew Point Humidity Wind Precip. Elev Updated Type